KMUO/MUO METAR and TAF weather

Enter ICAO airport designator
Station Type Date Time Source
KMUO METAR 2020/01/27 12:58 UTC NOAA

KMUO 271258Z AUTO 00000KT 10SM SCT080 00/ A3018 RMK AO2 SLP236 $


Station Type Date Time Source
KMUO Decoded METAR 2020/01/27 12:58 UTC NOAA

Mountain Home Air Force Base, ID, United States (KMUO) 43-03N 115-52W
Jan 27, 2020 - 07:58 AM EST / 2020.01.27 1258 UTC
Wind: Calm:0
Visibility: 10 mile(s):0
Sky conditions: partly cloudy
Temperature: 32 F (0 C)
Pressure (altimeter): 30.18 in. Hg (1022 hPa)
ob: KMUO 271258Z AUTO 00000KT 10SM SCT080 00/ A3018 RMK AO2 SLP236
cycle: 13

Station Type Date Time Source
KMUO TAF 2020/01/27 10:03 UTC NOAA

TAF KMUO 271000Z 2710/2816 32009KT 9999 FEW040 SCT250 QNH3016INS
BECMG 2713/2714 VRB06KT 9999 SCT040 BKN250 QNH3018INS
BECMG 2805/2806 11009KT 9999 BKN040 BKN080 OVC160 QNH3012INS
TEMPO 2812/2816 11012G18KT 8000 -RA BKN015 TX09/2722Z TNM01/2712Z

Example: see airport list